Shediac, Canada
Current Conditions -  °F | °C
As of 2:00 PM on Friday 26 Dec 2014 (Local Time) from CYQM Reporting Station
Few Clouds Few Clouds  
Wind Chill: 32°   Ceiling: Unl
Heat Index: 43°   Visibility: 15mi
Dew Point: 23°   Wind: 29mph
Humidity: 46%   Direction: 260°W
Pressure: 29.72"   Gusts: 38mph
Location:  46.22°N, 64.54°W
Report Text: CYQM 261800Z 26025G33KT 15SM FEW052 06/M05 A2972 RMK SC1 SLP067
Loading
Personal Weather Stations






























Interactive Weather Map New forecast layout! Learn more

10-Day Weather Forecast

Advertisements
Track Severe Weather on mobile